Ben Strafuss — WDH6685 — position and weather

sailwx.info

Track history (hours):
 
Tides and Currents Weather Stations Pressure Air Temp Water Temp Dewpoint Dewpoint Depression Visibility Wind Speed Wind Dir Waves Ship Positions

Ben Strafuss

Owner: Amis, LLC, Harahan, LA. More information available from US FCC via Universal Licensing System and Coast Guard Vessel Documentation Center.

Last reported at 2018-Jun-01 10:47 UTC. Time now 2018-Jun-24 20:27 UTC.
Position N 29°34' W 090°28'.
Warning: this ship's position is 23 days out of date.

Length 22 m; draft 3 m.

Type: Towing. MMSI: 367640610.

Date/timePositionNaut miles runAvg speedWind from/ knotsBaromVisibWave heightAir tempDewpointWater temp
2018-Jun-01 10:47N 29°34' W 090°28'2 6.3
2018-Jun-01 10:30N 29°34' W 090°30'3 6.0
2018-Jun-01 10:00N 29°34' W 090°34'3 5.3
2018-Jun-01 09:30N 29°35' W 090°37'3 5.3
2018-Jun-01 09:00N 29°36' W 090°39'2 4.6
2018-Jun-01 08:30N 29°37' W 090°42'1 2.4
2018-Jun-01 08:00N 29°36' W 090°43'2 4.2
2018-Jun-01 07:30N 29°34' W 090°43'3 5.0
2018-Jun-01 07:00N 29°32' W 090°46'3 6.4
2018-Jun-01 06:27N 29°32' W 090°50'62 4.6
2018-May-31 17:01N 29°50' W 091°58'0 6.0
2018-May-31 17:00N 29°50' W 091°58'3 5.8
2018-May-31 16:30N 29°49' W 092°01'3 6.1
2018-May-31 16:00N 29°48' W 092°05'3 6.3
2018-May-31 15:30N 29°47' W 092°08'3 5.3
2018-May-31 15:00N 29°47' W 092°11'1 2.8
2018-May-31 14:30N 29°47' W 092°12'3 5.3
2018-May-31 14:00N 29°48' W 092°15'3 5.8
2018-May-31 13:30N 29°50' W 092°18'40 5.4
2018-May-31 06:06N 29°56' W 093°04'0 5.5
2018-May-31 06:00N 29°56' W 093°04'3 5.5
2018-May-31 05:30N 29°56' W 093°08'3 5.1
2018-May-31 05:00N 29°57' W 093°10'3 5.7
2018-May-31 04:28N 29°59' W 093°13'2 5.2
2018-May-31 04:00N 30°01' W 093°14'2 4.6
2018-May-31 03:30N 30°03' W 093°16'2 3.7
2018-May-31 03:00N 30°05' W 093°17'1 2.2
2018-May-31 02:28N 30°05' W 093°18'1 1.6
2018-May-31 01:59N 30°06' W 093°18'1 1.3
2018-May-31 01:30N 30°06' W 093°19'0 0.2
2018-May-31 01:00N 30°06' W 093°19'0 0.0
2018-May-31 00:30N 30°06' W 093°19'0 0.0
2018-May-31 00:01N 30°06' W 093°19'0 0.0
2018-May-30 23:30N 30°06' W 093°19'0 0.0
2018-May-30 23:00N 30°06' W 093°19'0 0.1
2018-May-30 22:30N 30°06' W 093°19'0 0.1
2018-May-30 22:00N 30°06' W 093°19'0 0.1
2018-May-30 21:31N 30°06' W 093°19'0 0.0
2018-May-30 21:00N 30°06' W 093°19'0 0.0
2018-May-30 20:31N 30°06' W 093°19'0 0.0
2018-May-30 20:00N 30°06' W 093°19'0 0.0
2018-May-30 19:30N 30°06' W 093°19'0 0.0
2018-May-30 19:00N 30°06' W 093°19'0 0.0
2018-May-30 18:31N 30°06' W 093°19'0 0.1
2018-May-30 17:54N 30°06' W 093°19'0 0.0
2018-May-30 17:30N 30°06' W 093°19'0 0.0
2018-May-30 17:00N 30°06' W 093°19'0 0.0
2018-May-30 16:30N 30°06' W 093°19'0 0.0
2018-May-30 16:00N 30°06' W 093°19'0 0.1
2018-May-30 15:30N 30°06' W 093°19'2 5.0
2018-May-30 15:00N 30°04' W 093°21'2 4.2
2018-May-30 14:26N 30°04' W 093°23'2 4.6
2018-May-30 14:00N 30°04' W 093°26'3 6.1
2018-May-30 13:30N 30°04' W 093°29'3 5.5
2018-May-30 12:58N 30°04' W 093°33'3 6.5
2018-May-30 12:29N 30°04' W 093°36'3 7.0
2018-May-30 12:00N 30°04' W 093°40'3 6.4
2018-May-30 11:30N 30°03' W 093°44'3 7.0
2018-May-30 11:00N 30°00' W 093°46'4 7.1
2018-May-30 10:30N 29°59' W 093°50'3 6.7
2018-May-30 10:00N 29°56' W 093°52'4 7.5
2018-May-30 09:30N 29°53' W 093°55'4 7.2
2018-May-30 09:00N 29°50' W 093°57'3 5.7
2018-May-30 08:30N 29°48' W 094°00'3 6.5
2018-May-30 08:00N 29°46' W 094°03'3 6.6
2018-May-30 07:30N 29°44' W 094°06'3 6.3
2018-May-30 07:00N 29°42' W 094°09'3 5.9
2018-May-30 06:30N 29°41' W 094°12'3 5.9
2018-May-30 06:00N 29°40' W 094°15'4 6.6
2018-May-30 05:25N 29°38' W 094°19'4 6.6
2018-May-30 04:49N 29°36' W 094°23'2 5.5
2018-May-30 04:29N 29°36' W 094°25'2 4.5
2018-May-30 03:59N 29°34' W 094°26'18 4.3
2018-May-29 23:42N 29°25' W 094°44'1 4.7
2018-May-29 23:25N 29°24' W 094°45'2 5.7
2018-May-29 23:00N 29°22' W 094°47'12 5.9
2018-May-29 21:02N 29°32' W 094°54'0 7.2
2018-May-29 21:00N 29°32' W 094°54'4 7.3
2018-May-29 20:30N 29°35' W 094°56'4 7.3
2018-May-29 20:00N 29°39' W 094°58'10 1.6
2018-May-29 13:36N 29°47' W 095°05'0 0.1
2018-May-29 13:30N 29°47' W 095°05'0 0.0
2018-May-29 12:54N 29°47' W 095°05'0 0.0
2018-May-29 12:30N 29°47' W 095°05'  
Track history (hours):
 
Tides and Currents Weather Stations Pressure Air Temp Water Temp Dewpoint Dewpoint Depression Visibility Wind Speed Wind Dir Waves Ship Positions

Ben Strafuss

Owner: Amis, LLC, Harahan, LA. More information available from US FCC via Universal Licensing System and Coast Guard Vessel Documentation Center.

Last reported at 2018-Jun-01 10:47 UTC. Time now 2018-Jun-24 20:27 UTC.
Position N 29°34' W 090°28'.
Warning: this ship's position is 23 days out of date.

Length 22 m; draft 3 m.

Type: Towing. MMSI: 367640610.

Date/timePositionNaut miles runAvg speedWind from/ knotsBaromVisibWave heightAir tempDewpointWater temp
2018-Jun-01 10:47N 29°34' W 090°28'2 6.3
2018-Jun-01 10:30N 29°34' W 090°30'3 6.0
2018-Jun-01 10:00N 29°34' W 090°34'3 5.3
2018-Jun-01 09:30N 29°35' W 090°37'3 5.3
2018-Jun-01 09:00N 29°36' W 090°39'2 4.6
2018-Jun-01 08:30N 29°37' W 090°42'1 2.4
2018-Jun-01 08:00N 29°36' W 090°43'2 4.2
2018-Jun-01 07:30N 29°34' W 090°43'3 5.0
2018-Jun-01 07:00N 29°32' W 090°46'3 6.4
2018-Jun-01 06:27N 29°32' W 090°50'62 4.6
2018-May-31 17:01N 29°50' W 091°58'0 6.0
2018-May-31 17:00N 29°50' W 091°58'3 5.8
2018-May-31 16:30N 29°49' W 092°01'3 6.1
2018-May-31 16:00N 29°48' W 092°05'3 6.3
2018-May-31 15:30N 29°47' W 092°08'3 5.3
2018-May-31 15:00N 29°47' W 092°11'1 2.8
2018-May-31 14:30N 29°47' W 092°12'3 5.3
2018-May-31 14:00N 29°48' W 092°15'3 5.8
2018-May-31 13:30N 29°50' W 092°18'40 5.4
2018-May-31 06:06N 29°56' W 093°04'0 5.5
2018-May-31 06:00N 29°56' W 093°04'3 5.5
2018-May-31 05:30N 29°56' W 093°08'3 5.1
2018-May-31 05:00N 29°57' W 093°10'3 5.7
2018-May-31 04:28N 29°59' W 093°13'2 5.2
2018-May-31 04:00N 30°01' W 093°14'2 4.6
2018-May-31 03:30N 30°03' W 093°16'2 3.7
2018-May-31 03:00N 30°05' W 093°17'1 2.2
2018-May-31 02:28N 30°05' W 093°18'1 1.6
2018-May-31 01:59N 30°06' W 093°18'1 1.3
2018-May-31 01:30N 30°06' W 093°19'0 0.2
2018-May-31 01:00N 30°06' W 093°19'0 0.0
2018-May-31 00:30N 30°06' W 093°19'0 0.0
2018-May-31 00:01N 30°06' W 093°19'0 0.0
2018-May-30 23:30N 30°06' W 093°19'0 0.0
2018-May-30 23:00N 30°06' W 093°19'0 0.1
2018-May-30 22:30N 30°06' W 093°19'0 0.1
2018-May-30 22:00N 30°06' W 093°19'0 0.1
2018-May-30 21:31N 30°06' W 093°19'0 0.0
2018-May-30 21:00N 30°06' W 093°19'0 0.0
2018-May-30 20:31N 30°06' W 093°19'0 0.0
2018-May-30 20:00N 30°06' W 093°19'0 0.0
2018-May-30 19:30N 30°06' W 093°19'0 0.0
2018-May-30 19:00N 30°06' W 093°19'0 0.0
2018-May-30 18:31N 30°06' W 093°19'0 0.1
2018-May-30 17:54N 30°06' W 093°19'0 0.0
2018-May-30 17:30N 30°06' W 093°19'0 0.0
2018-May-30 17:00N 30°06' W 093°19'0 0.0
2018-May-30 16:30N 30°06' W 093°19'0 0.0
2018-May-30 16:00N 30°06' W 093°19'0 0.1
2018-May-30 15:30N 30°06' W 093°19'2 5.0
2018-May-30 15:00N 30°04' W 093°21'2 4.2
2018-May-30 14:26N 30°04' W 093°23'2 4.6
2018-May-30 14:00N 30°04' W 093°26'3 6.1
2018-May-30 13:30N 30°04' W 093°29'3 5.5
2018-May-30 12:58N 30°04' W 093°33'3 6.5
2018-May-30 12:29N 30°04' W 093°36'3 7.0
2018-May-30 12:00N 30°04' W 093°40'3 6.4
2018-May-30 11:30N 30°03' W 093°44'3 7.0
2018-May-30 11:00N 30°00' W 093°46'4 7.1
2018-May-30 10:30N 29°59' W 093°50'3 6.7
2018-May-30 10:00N 29°56' W 093°52'4 7.5
2018-May-30 09:30N 29°53' W 093°55'4 7.2
2018-May-30 09:00N 29°50' W 093°57'3 5.7
2018-May-30 08:30N 29°48' W 094°00'3 6.5
2018-May-30 08:00N 29°46' W 094°03'3 6.6
2018-May-30 07:30N 29°44' W 094°06'3 6.3
2018-May-30 07:00N 29°42' W 094°09'3 5.9
2018-May-30 06:30N 29°41' W 094°12'3 5.9
2018-May-30 06:00N 29°40' W 094°15'4 6.6
2018-May-30 05:25N 29°38' W 094°19'4 6.6
2018-May-30 04:49N 29°36' W 094°23'2 5.5
2018-May-30 04:29N 29°36' W 094°25'2 4.5
2018-May-30 03:59N 29°34' W 094°26'18 4.3
2018-May-29 23:42N 29°25' W 094°44'1 4.7
2018-May-29 23:25N 29°24' W 094°45'2 5.7
2018-May-29 23:00N 29°22' W 094°47'12 5.9
2018-May-29 21:02N 29°32' W 094°54'0 7.2
2018-May-29 21:00N 29°32' W 094°54'4 7.3
2018-May-29 20:30N 29°35' W 094°56'4 7.3
2018-May-29 20:00N 29°39' W 094°58'10 1.6
2018-May-29 13:36N 29°47' W 095°05'0 0.1
2018-May-29 13:30N 29°47' W 095°05'0 0.0
2018-May-29 12:54N 29°47' W 095°05'0 0.0
2018-May-29 12:30N 29°47' W 095°05'  

Dump ship's entire track history